This is the latest recevied weather packets stored in our database for station/object SV3AQT-13. If no packets are shown the sender has not sent any weather packets the latest 10 day(s).
| Time | Temp. | Humidity | Pressure | Rain* | Wind** | Luminosity | Snow |
|---|---|---|---|---|---|---|---|
| 1788366312 | 30° C | 66% | 1016.2 hPa | 0 mm | 0 m/s | - | - |
| 1788365713 | 30.56° C | 69% | 1016.2 hPa | 0 mm | 0 m/s | - | - |
| 1788365110 | 31.11° C | 68% | 1016.2 hPa | 0 mm | 0 m/s | - | - |
| 1788364511 | 31.11° C | 67% | 1016.2 hPa | 0 mm | 0 m/s | - | - |
| 1788363910 | 31.67° C | 65% | 1015.9 hPa | 0 mm | 0 m/s | - | - |
| 1788363312 | 31.67° C | 64% | 1015.2 hPa | 0 mm | 0 m/s | - | - |
| 1788362711 | 31.67° C | 62% | 1015.2 hPa | 0 mm | 0 m/s | - | - |
| 1788361510 | 31.67° C | 70% | 1015.9 hPa | 0 mm | 0 m/s | - | - |
| 1788360914 | 31.11° C | 71% | 1015.9 hPa | 0 mm | 0 m/s | - | - |
| 1788358511 | 31.67° C | 73% | 1016.2 hPa | 0 mm | 0.45 m/s, 77° | - | - |
| 1788357912 | 31.11° C | 73% | 1016.2 hPa | 0 mm | 0.45 m/s, 79° | - | - |
| 1788357312 | 31.11° C | 77% | 1016.2 hPa | 0 mm | 0 m/s | - | - |
| 1788356110 | 30.56° C | 74% | 1016.5 hPa | 0 mm | 1.79 m/s, 68° | - | - |
| 1788355510 | 31.11° C | 73% | 1016.5 hPa | 0 mm | 0.89 m/s, 63° | - | - |
| 1788354910 | 30.56° C | 74% | 1016.5 hPa | 0 mm | 2.24 m/s, 65° | - | - |
| 1788354312 | 31.11° C | 74% | 1016.5 hPa | 0 mm | 1.34 m/s, 61° | - | - |
| 1788353710 | 31.67° C | 70% | 1016.9 hPa | 0 mm | 0.89 m/s, 80° | - | - |
| 1788353110 | 31.67° C | 67% | 1016.9 hPa | 0 mm | 1.34 m/s, 57° | - | - |
| 1788352511 | 32.22° C | 64% | 1016.9 hPa | 0 mm | 1.34 m/s, 38° | - | - |
| 1788351910 | 32.22° C | 62% | 1016.9 hPa | 0 mm | 1.34 m/s, 47° | - | - |
| 1788351310 | 32.22° C | 64% | 1017.2 hPa | 0 mm | 1.34 m/s, 73° | - | - |
| 1788350712 | 31.67° C | 67% | 1017.2 hPa | 0 mm | 1.79 m/s, 74° | - | - |
| 1788350110 | 31.11° C | 69% | 1017.2 hPa | 0 mm | 2.24 m/s, 71° | - | - |
| 1788349510 | 31.67° C | 64% | 1017.2 hPa | 0 mm | 1.79 m/s, 39° | - | - |
| 1788348312 | 32.22° C | 62% | 1017.2 hPa | 0 mm | 0.89 m/s, 53° | - | - |
* Rain latest hour (hover to see other rain measurements)
** Current wind speed in m/s (hover to see current wind gust speed)